Time;durP1;ratioP1;P1;durP2;ratioP2;P2;SDS_P1;SDS_P2;PMS_P1;PMS_P2;Temp;Humidity;BMP_temperature;BMP_pressure;BME280_temperature;BME280_humidity;BME280_pressure;Samples;Min_cycle;Max_cycle;Signal;HPM_P1;HPM_P2
2021/10/23 00:01:31;;;;;;;;;;;;;;;4.28;100.00;102362.00;4899474;29;20018;-47
2021/10/23 00:03:58;;;;;;;;;;;;;;;4.32;100.00;102366.28;4899345;29;19927;-44
2021/10/23 00:06:24;;;;;;;;;;;;;;;4.28;100.00;102367.22;4897399;29;19927;-43
2021/10/23 00:08:51;;;;;;;;;;;;;;;4.36;100.00;102373.16;4896235;29;19935;-43
2021/10/23 00:11:18;;;;;;;;;;;;;;;4.32;100.00;102366.28;4897907;29;19935;-53
2021/10/23 00:13:44;;;;;;;;;;;;;;;4.39;100.00;102380.03;4898630;29;20053;-51
2021/10/23 00:16:11;;;;;;;;;;;;;;;4.39;100.00;102380.03;4899111;29;20652;-51
2021/10/23 00:18:38;;;;;;;;;;;;;;;4.33;100.00;102388.81;4898736;29;19928;-51
2021/10/23 00:21:04;;;;;;;;;;;;;;;4.35;100.00;102394.88;4880848;29;19935;-52
2021/10/23 00:23:31;;;;;;;;;;;;;;;4.40;100.00;102397.41;4879432;29;20311;-51
2021/10/23 00:25:58;;;;;;;;;;;;;;;4.36;100.00;102394.00;4880063;29;20269;-51
2021/10/23 00:28:25;;;;;;;;;;;;;;;4.37;100.00;102389.66;4894709;29;19928;-51
2021/10/23 00:30:51;;;;;;;;;;;;;;;4.45;100.00;102384.34;4878732;29;20011;-51
2021/10/23 00:33:18;;;;;;;;;;;;;;;4.43;100.00;102389.56;4895982;29;19932;-52
2021/10/23 00:35:45;;;;;;;;;;;;;;;4.44;100.00;102390.41;4896417;29;19931;-51
2021/10/23 00:38:12;;;;;;;;;;;;;;;4.42;100.00;102395.66;4865760;29;19934;-51
2021/10/23 00:40:39;;;;;;;;;;;;;;;4.43;100.00;102380.88;4898619;29;19927;-54
2021/10/23 00:43:05;;;;;;;;;;;;;;;4.47;100.00;102388.66;4898422;29;19927;-50
2021/10/23 00:45:32;;;;;;;;;;;;;;;4.52;100.00;102388.56;4898674;29;19928;-54
2021/10/23 00:47:59;;;;;;;;;;;;;;;4.54;100.00;102384.16;4881671;29;19932;-53
2021/10/23 00:50:25;;;;;;;;;;;;;;;4.61;100.00;102387.53;4898568;29;20349;-46
2021/10/23 00:52:52;;;;;;;;;;;;;;;4.59;100.00;102384.13;4881865;29;19934;-45
2021/10/23 00:55:19;;;;;;;;;;;;;;;4.54;100.00;102390.25;4895843;29;19959;-45
2021/10/23 00:57:46;;;;;;;;;;;;;;;4.50;100.00;102393.81;4879558;29;19983;-45
2021/10/23 01:00:12;;;;;;;;;;;;;;;4.53;100.00;102395.50;4898199;29;19928;-43
2021/10/23 01:02:39;;;;;;;;;;;;;;;4.52;100.00;102388.56;4898171;29;19927;-47
2021/10/23 01:05:06;;;;;;;;;;;;;;;4.60;100.00;102396.28;4881610;29;20030;-46
2021/10/23 01:07:34;;;;;;;;;;;;;;;4.56;100.00;102383.25;4881239;29;19927;-46
2021/10/23 01:10:01;;;;;;;;;;;;;;;4.56;100.00;102392.84;4863509;29;19928;-45
2021/10/23 01:12:27;;;;;;;;;;;;;;;4.60;100.00;102389.31;4895888;29;19931;-49
2021/10/23 01:14:54;;;;;;;;;;;;;;;4.65;100.00;102397.03;4879433;29;20267;-44
2021/10/23 01:17:21;;;;;;;;;;;;;;;4.60;100.00;102384.09;4878372;29;19979;-51
2021/10/23 01:19:56;;;;;;;;;;;;;;;4.59;100.00;102378.91;4880836;29;19928;-52
2021/10/23 01:22:29;;;;;;;;;;;;;;;4.53;100.00;102372.06;4897811;29;19928;-52
2021/10/23 01:24:56;;;;;;;;;;;;;;;4.48;100.00;102360.84;4898025;29;19934;-44
2021/10/23 01:27:23;;;;;;;;;;;;;;;4.47;100.00;102370.41;4897968;29;19928;-49
2021/10/23 01:29:49;;;;;;;;;;;;;;;4.48;100.00;102382.53;4880917;29;20395;-52
2021/10/23 01:32:16;;;;;;;;;;;;;;;4.50;100.00;102372.06;4880902;29;19927;-45
2021/10/23 01:34:43;;;;;;;;;;;;;;;4.44;100.00;102370.44;4895330;29;19938;-50
2021/10/23 01:37:09;;;;;;;;;;;;;;;4.45;100.00;102372.16;4878858;29;20430;-48
2021/10/23 01:39:36;;;;;;;;;;;;;;;4.38;100.00;102363.56;4895014;29;19989;-43
2021/10/23 01:42:03;;;;;;;;;;;;;;;4.32;100.00;102366.28;4894849;29;19935;-42
2021/10/23 01:44:31;;;;;;;;;;;;;;;4.26;100.00;102361.16;4878031;29;19927;-43
2021/10/23 01:46:58;;;;;;;;;;;;;;;4.30;100.00;102364.56;4896318;29;20391;-45
2021/10/23 01:49:25;;;;;;;;;;;;;;;4.22;100.00;102360.31;4880514;29;19927;-42
2021/10/23 01:51:51;;;;;;;;;;;;;;;4.21;100.00;102370.75;4878803;29;19995;-42
2021/10/23 01:54:18;;;;;;;;;;;;;;;4.22;100.00;102378.56;4894456;29;19950;-47
2021/10/23 01:56:45;;;;;;;;;;;;;;;4.23;100.00;102379.44;4894744;29;20438;-43
2021/10/23 01:59:11;;;;;;;;;;;;;;;4.20;100.00;102387.28;4879840;29;20435;-54
2021/10/23 02:01:38;;;;;;;;;;;;;;;4.18;100.00;102381.22;4897010;29;19927;-54
2021/10/23 02:04:05;;;;;;;;;;;;;;;4.17;100.00;102382.97;4894904;29;19998;-53
2021/10/23 02:06:32;;;;;;;;;;;;;;;4.11;100.00;102384.81;4878460;29;20459;-53
2021/10/23 02:09:00;;;;;;;;;;;;;;;4.06;100.00;102388.34;4894706;29;20391;-51
2021/10/23 02:11:27;;;;;;;;;;;;;;;4.05;100.00;102380.53;4895603;29;19981;-51
2021/10/23 02:13:53;;;;;;;;;;;;;;;4.02;100.00;102393.59;4880576;29;19950;-53
2021/10/23 02:16:20;;;;;;;;;;;;;;;3.97;100.00;102398.00;4876759;29;20299;-53
2021/10/23 02:18:46;;;;;;;;;;;;;;;3.99;100.00;102396.22;4894753;29;19935;-52
2021/10/23 02:21:13;;;;;;;;;;;;;;;3.94;100.00;102392.81;4895588;29;20414;-54
2021/10/23 02:23:40;;;;;;;;;;;;;;;3.87;100.00;102392.03;4880776;29;19928;-52
2021/10/23 02:26:07;;;;;;;;;;;;;;;3.87;100.00;102394.63;4895980;29;19931;-53
2021/10/23 02:28:33;;;;;;;;;;;;;;;3.89;100.00;102401.53;4893731;29;19931;-52
2021/10/23 02:31:01;;;;;;;;;;;;;;;3.84;100.00;102405.09;4877063;29;20398;-45
2021/10/23 02:33:28;;;;;;;;;;;;;;;3.86;100.00;102416.38;4894754;29;19938;-44
2021/10/23 02:35:54;;;;;;;;;;;;;;;3.88;100.00;102419.78;4878791;29;19951;-43
2021/10/23 02:38:21;;;;;;;;;;;;;;;3.85;100.00;102412.03;4894079;29;19934;-50
2021/10/23 02:40:48;;;;;;;;;;;;;;;3.87;100.00;102411.13;4878153;29;19927;-54
2021/10/23 02:43:15;;;;;;;;;;;;;;;3.92;100.00;102416.28;4878935;29;19960;-55
2021/10/23 02:45:41;;;;;;;;;;;;;;;3.91;100.00;102413.69;4897075;29;19928;-52
2021/10/23 02:48:08;;;;;;;;;;;;;;;3.94;100.00;102411.03;4881690;29;20022;-52
2021/10/23 02:50:35;;;;;;;;;;;;;;;3.91;100.00;102414.53;4899779;29;20399;-51
2021/10/23 02:53:02;;;;;;;;;;;;;;;3.99;100.00;102419.66;4898234;29;19927;-43
2021/10/23 02:55:28;;;;;;;;;;;;;;;3.93;100.00;102414.53;4897450;29;20443;-45
2021/10/23 02:57:55;;;;;;;;;;;;;;;3.99;100.00;102417.06;4897578;29;19978;-46
2021/10/23 03:00:22;;;;;;;;;;;;;;;3.97;100.00;102413.63;4882308;29;19937;-45
2021/10/23 03:02:49;;;;;;;;;;;;;;;3.97;100.00;102413.63;4897969;29;19927;-46
2021/10/23 03:05:16;;;;;;;;;;;;;;;3.97;100.00;102422.28;4898533;29;19927;-42
2021/10/23 03:07:43;;;;;;;;;;;;;;;3.94;100.00;102413.66;4883779;29;20387;-44
2021/10/23 03:10:10;;;;;;;;;;;;;;;3.98;100.00;102413.59;4883558;29;19987;-44
2021/10/23 03:12:36;;;;;;;;;;;;;;;3.89;100.00;102409.34;4900498;29;20390;-45
2021/10/23 03:15:03;;;;;;;;;;;;;;;4.02;100.00;102419.63;4900275;29;19931;-42
2021/10/23 03:17:30;;;;;;;;;;;;;;;3.94;100.00;102424.94;4899463;29;19935;-44
2021/10/23 03:19:57;;;;;;;;;;;;;;;3.95;100.00;102425.78;4897722;29;19940;-54
2021/10/23 03:22:24;;;;;;;;;;;;;;;3.97;100.00;102424.91;4899114;29;19928;-48
2021/10/23 03:24:50;;;;;;;;;;;;;;;4.02;100.00;102435.25;4897941;29;19936;-49
2021/10/23 03:27:21;;;;;;;;;;;;;;;4.00;100.00;102431.81;4896815;29;19927;-51
2021/10/23 03:29:49;;;;;;;;;;;;;;;4.00;100.00;102434.41;4863672;29;19987;-51
2021/10/23 03:32:16;;;;;;;;;;;;;;;4.04;100.00;102436.09;4865238;29;19995;-51
2021/10/23 03:34:42;;;;;;;;;;;;;;;4.02;100.00;102433.53;4899846;29;20031;-52
2021/10/23 03:37:09;;;;;;;;;;;;;;;4.04;100.00;102433.50;4898222;29;19927;-50
2021/10/23 03:39:36;;;;;;;;;;;;;;;4.09;100.00;102433.44;4896716;29;19966;-51
2021/10/23 03:42:03;;;;;;;;;;;;;;;4.03;100.00;102434.38;4896963;29;19962;-50
2021/10/23 03:44:30;;;;;;;;;;;;;;;4.03;100.00;102445.63;4897139;29;19975;-50
2021/10/23 03:46:56;;;;;;;;;;;;;;;4.05;100.00;102446.50;4898243;29;19932;-53
2021/10/23 03:49:23;;;;;;;;;;;;;;;4.03;100.00;102458.66;4896235;29;20388;-54
2021/10/23 03:51:50;;;;;;;;;;;;;;;4.00;100.00;102452.63;4882219;29;19991;-52
2021/10/23 03:54:16;;;;;;;;;;;;;;;3.96;100.00;102454.41;4881803;29;19928;-51
2021/10/23 03:56:43;;;;;;;;;;;;;;;3.96;100.00;102459.63;4899518;29;20395;-52
2021/10/23 03:59:10;;;;;;;;;;;;;;;3.94;100.00;102457.91;4899459;29;19935;-51
2021/10/23 04:01:36;;;;;;;;;;;;;;;3.93;100.00;102450.97;4899510;29;20022;-50
2021/10/23 04:04:03;;;;;;;;;;;;;;;3.94;100.00;102444.88;4897977;29;20634;-50
2021/10/23 04:06:30;;;;;;;;;;;;;;;3.91;100.00;102447.53;4896647;29;19928;-52
2021/10/23 04:08:57;;;;;;;;;;;;;;;3.87;100.00;102450.19;4896717;29;19956;-51
2021/10/23 04:11:23;;;;;;;;;;;;;;;3.82;100.00;102445.91;4896390;29;19983;-53
2021/10/23 04:13:50;;;;;;;;;;;;;;;3.79;100.00;102453.72;4895741;29;19955;-54
2021/10/23 04:16:17;;;;;;;;;;;;;;;3.71;100.00;102448.63;4896305;29;19967;-53
2021/10/23 04:18:43;;;;;;;;;;;;;;;3.73;100.00;102449.47;4898850;29;20002;-53
2021/10/23 04:21:13;;;;;;;;;;;;;;;3.75;100.00;102449.44;4898950;29;19928;-47
2021/10/23 04:23:40;;;;;;;;;;;;;;;3.71;100.00;102453.84;4898854;29;19928;-44
2021/10/23 04:26:06;;;;;;;;;;;;;;;3.71;100.00;102444.28;4896824;29;19928;-45
2021/10/23 04:28:33;;;;;;;;;;;;;;;3.74;100.00;102446.00;4878468;29;19995;-44
2021/10/23 04:31:00;;;;;;;;;;;;;;;3.62;100.00;102451.31;4896592;29;19934;-44
2021/10/23 04:33:27;;;;;;;;;;;;;;;3.59;100.00;102449.63;4896890;29;20100;-45
2021/10/23 04:35:54;;;;;;;;;;;;;;;3.60;100.00;102461.75;4896052;29;19927;-43
2021/10/23 04:38:20;;;;;;;;;;;;;;;3.61;100.00;102463.44;4895821;29;19959;-45
2021/10/23 04:40:47;;;;;;;;;;;;;;;3.57;100.00;102466.97;4898322;29;19927;-45
2021/10/23 04:43:14;;;;;;;;;;;;;;;3.55;100.00;102476.53;4895252;29;19932;-44
2021/10/23 04:45:40;;;;;;;;;;;;;;;3.48;100.00;102465.31;4880883;29;19950;-42
2021/10/23 04:48:07;;;;;;;;;;;;;;;3.43;100.00;102474.91;4881686;29;19927;-44
2021/10/23 04:50:34;;;;;;;;;;;;;;;3.45;100.00;102467.97;4896560;29;20336;-44
2021/10/23 04:53:00;;;;;;;;;;;;;;;3.38;100.00;102459.34;4896105;29;19934;-52
2021/10/23 04:55:27;;;;;;;;;;;;;;;3.38;100.00;102466.28;4880489;29;19927;-53
2021/10/23 04:57:55;;;;;;;;;;;;;;;3.37;100.00;102474.97;4894923;29;19931;-52
2021/10/23 05:00:22;;;;;;;;;;;;;;;3.31;100.00;102469.81;4896632;29;20398;-50
2021/10/23 05:02:48;;;;;;;;;;;;;;;3.30;100.00;102468.97;4896337;29;19927;-54
2021/10/23 05:05:15;;;;;;;;;;;;;;;3.29;100.00;102464.63;4894519;29;20394;-55
2021/10/23 05:07:42;;;;;;;;;;;;;;;3.33;100.00;102468.94;4898146;29;19928;-55
2021/10/23 05:10:08;;;;;;;;;;;;;;;3.36;100.00;102468.88;4898084;29;19934;-50
2021/10/23 05:12:35;;;;;;;;;;;;;;;3.31;100.00;102473.28;4896549;29;19928;-54
2021/10/23 05:15:02;;;;;;;;;;;;;;;3.28;100.00;102480.25;4877396;29;19931;-53
2021/10/23 05:17:28;;;;;;;;;;;;;;;3.28;100.00;102480.25;4880482;29;19934;-55
2021/10/23 05:19:55;;;;;;;;;;;;;;;3.20;100.00;102483.78;4897658;29;19928;-53
2021/10/23 05:22:22;;;;;;;;;;;;;;;3.21;100.00;102485.50;4897899;29;19979;-55
2021/10/23 05:24:48;;;;;;;;;;;;;;;3.24;100.00;102489.81;4898005;29;19962;-44
2021/10/23 05:27:15;;;;;;;;;;;;;;;3.20;100.00;102493.31;4881217;29;19927;-44
2021/10/23 05:29:42;;;;;;;;;;;;;;;3.22;100.00;102491.56;4878378;29;20013;-43
2021/10/23 05:32:08;;;;;;;;;;;;;;;3.20;100.00;102488.09;4894845;29;19987;-44
2021/10/23 05:34:35;;;;;;;;;;;;;;;3.25;100.00;102494.13;4864928;29;19934;-45
2021/10/23 05:37:02;;;;;;;;;;;;;;;3.15;100.00;102490.75;4895441;29;19931;-44
2021/10/23 05:39:29;;;;;;;;;;;;;;;3.17;100.00;102509.78;4878148;29;19934;-47
2021/10/23 05:41:55;;;;;;;;;;;;;;;3.17;100.00;102506.34;4894845;29;19932;-46
2021/10/23 05:44:23;;;;;;;;;;;;;;;3.16;100.00;102508.09;4877534;29;19927;-54
2021/10/23 05:46:50;;;;;;;;;;;;;;;3.14;100.00;102502.03;4893906;29;19939;-47
2021/10/23 05:49:16;;;;;;;;;;;;;;;3.09;100.00;102498.59;4878379;29;19934;-46
2021/10/23 05:51:43;;;;;;;;;;;;;;;3.08;100.00;102506.41;4896370;29;20319;-46
2021/10/23 05:54:09;;;;;;;;;;;;;;;3.12;100.00;102513.31;4881013;29;19927;-46
2021/10/23 05:56:36;;;;;;;;;;;;;;;2.99;100.00;102517.75;4895833;29;20299;-45
2021/10/23 05:59:12;;;;;;;;;;;;;;;3.04;100.00;102518.53;4894728;29;19928;-45
2021/10/23 06:01:39;;;;;;;;;;;;;;;3.00;100.00;102522.03;4893516;29;19935;-42
2021/10/23 06:04:06;;;;;;;;;;;;;;;2.94;100.00;102516.91;4897477;29;19927;-45
2021/10/23 06:06:33;;;;;;;;;;;;;;;3.01;100.00;102529.84;4897595;29;19967;-48
2021/10/23 06:09:00;;;;;;;;;;;;;;;3.04;100.00;102526.34;4880916;29;20315;-49
2021/10/23 06:11:28;;;;;;;;;;;;;;;3.00;100.00;102537.63;4880727;29;19931;-43
2021/10/23 06:13:56;;;;;;;;;;;;;;;3.05;100.00;102535.88;4877890;29;19977;-45
2021/10/23 06:16:22;;;;;;;;;;;;;;;3.01;100.00;102539.38;4877982;29;19928;-45
2021/10/23 06:18:49;;;;;;;;;;;;;;;2.90;100.00;102533.38;4884856;29;20011;-55
2021/10/23 06:21:16;;;;;;;;;;;;;;;2.88;100.00;102542.06;4884323;29;20406;-56
2021/10/23 06:23:43;;;;;;;;;;;;;;;3.01;100.00;102548.06;4901008;29;20438;-54
2021/10/23 06:26:09;;;;;;;;;;;;;;;2.91;100.00;102548.97;4869120;29;19975;-55
2021/10/23 06:28:36;;;;;;;;;;;;;;;2.91;100.00;102543.78;4884375;29;19938;-53
2021/10/23 06:31:04;;;;;;;;;;;;;;;2.98;100.00;102555.00;4901093;29;19985;-55
2021/10/23 06:33:30;;;;;;;;;;;;;;;2.93;100.00;102551.56;4900622;29;20027;-55
2021/10/23 06:35:57;;;;;;;;;;;;;;;3.02;100.00;102559.31;4900229;29;20451;-55
2021/10/23 06:38:24;;;;;;;;;;;;;;;2.99;100.00;102561.94;4866489;29;19931;-55
2021/10/23 06:40:50;;;;;;;;;;;;;;;3.00;100.00;102558.44;4881637;29;19965;-55
2021/10/23 06:43:17;;;;;;;;;;;;;;;2.98;100.00;102570.59;4879894;29;19927;-46
2021/10/23 06:45:44;;;;;;;;;;;;;;;2.98;100.00;102570.59;4897473;29;19927;-45
2021/10/23 06:48:12;;;;;;;;;;;;;;;3.00;100.00;102574.03;4881354;29;19938;-43
2021/10/23 06:50:38;;;;;;;;;;;;;;;3.09;100.00;102578.31;4899040;29;20399;-46
2021/10/23 06:53:05;;;;;;;;;;;;;;;3.12;100.00;102584.38;4900650;29;19934;-45
2021/10/23 06:55:32;;;;;;;;;;;;;;;3.14;100.00;102590.41;4884049;29;19932;-48
2021/10/23 06:57:58;;;;;;;;;;;;;;;3.22;100.00;102591.25;4880840;29;19931;-43
2021/10/23 07:00:25;;;;;;;;;;;;;;;3.26;100.00;102599.00;4896281;29;20280;-45
2021/10/23 07:02:51;;;;;;;;;;;;;;;3.32;100.00;102594.63;4898600;29;19995;-54
2021/10/23 07:05:20;;;;;;;;;;;;;;;3.47;100.00;102598.00;4900202;29;20029;-53
2021/10/23 07:07:47;;;;;;;;;;;;;;;3.48;100.00;102603.19;4898480;29;20026;-50
2021/10/23 07:10:13;;;;;;;;;;;;;;;3.57;100.00;102611.81;4879941;29;19939;-53
2021/10/23 07:12:46;;;;;;;;;;;;;;;3.66;100.00;102611.75;4900300;29;19963;-48
2021/10/23 07:15:12;;;;;;;;;;;;;;;3.72;100.00;102615.16;4900187;29;19934;-54
2021/10/23 07:17:39;;;;;;;;;;;;;;;3.78;100.00;102621.22;4900211;29;19936;-53
2021/10/23 07:20:06;;;;;;;;;;;;;;;3.87;100.00;102626.31;4900347;29;19966;-44
2021/10/23 07:22:33;;;;;;;;;;;;;;;3.88;100.00;102622.84;4865899;29;20299;-54
2021/10/23 07:25:00;;;;;;;;;;;;;;;3.92;100.00;102632.34;4896916;29;19980;-44
2021/10/23 07:27:27;;;;;;;;;;;;;;;4.00;100.00;102637.50;4896766;29;19928;-43
2021/10/23 07:29:53;;;;;;;;;;;;;;;4.06;100.00;102645.22;4894709;29;20403;-45
2021/10/23 07:32:20;;;;;;;;;;;;;;;4.14;100.00;102640.81;4896848;29;19934;-44
2021/10/23 07:34:47;;;;;;;;;;;;;;;4.22;100.00;102649.41;4882388;29;19928;-44
2021/10/23 07:37:13;;;;;;;;;;;;;;;4.31;100.00;102652.81;4899685;29;19927;-45
2021/10/23 07:39:40;;;;;;;;;;;;;;;4.38;100.00;102665.78;4899621;29;19970;-43
2021/10/23 07:42:07;;;;;;;;;;;;;;;4.46;100.00;102663.09;4879877;29;19955;-43
2021/10/23 07:44:35;;;;;;;;;;;;;;;4.55;100.00;102664.72;4879692;29;19927;-44
2021/10/23 07:47:01;;;;;;;;;;;;;;;4.62;100.00;102663.81;4896430;29;19975;-43
2021/10/23 07:49:28;;;;;;;;;;;;;;;4.74;100.00;102673.22;4881952;29;19979;-44
2021/10/23 07:51:55;;;;;;;;;;;;;;;4.84;100.00;102676.56;4883052;29;19980;-43
2021/10/23 07:54:21;;;;;;;;;;;;;;;4.93;100.00;102683.44;4899448;29;19983;-44
2021/10/23 07:56:48;;;;;;;;;;;;;;;5.00;100.00;102680.72;4882932;29;19928;-43
2021/10/23 07:59:15;;;;;;;;;;;;;;;5.07;100.00;102679.78;4899418;29;19927;-43
2021/10/23 08:01:41;;;;;;;;;;;;;;;5.15;100.00;102678.81;4899299;29;19927;-46
2021/10/23 08:04:08;;;;;;;;;;;;;;;5.21;100.00;102687.41;4899337;29;19934;-43
2021/10/23 08:06:35;;;;;;;;;;;;;;;5.29;100.00;102687.31;4896934;29;19928;-43
2021/10/23 08:09:03;;;;;;;;;;;;;;;5.39;100.00;102693.28;4879889;29;20395;-44
2021/10/23 08:11:29;;;;;;;;;;;;;;;5.49;100.00;102689.63;4895613;29;19928;-43
2021/10/23 08:13:56;;;;;;;;;;;;;;;5.56;100.00;102691.28;4897597;29;19931;-43
2021/10/23 08:16:22;;;;;;;;;;;;;;;5.66;100.00;102692.00;4898957;29;20383;-48
2021/10/23 08:18:49;;;;;;;;;;;;;;;5.76;100.00;102685.75;4899068;29;19927;-54
2021/10/23 08:21:17;;;;;;;;;;;;;;;5.84;100.00;102690.84;4898982;29;19932;-51
2021/10/23 08:23:44;;;;;;;;;;;;;;;5.93;100.00;102695.94;4898985;29;19935;-54
2021/10/23 08:26:10;;;;;;;;;;;;;;;6.07;100.00;102703.56;4882462;29;19928;-52
2021/10/23 08:28:37;;;;;;;;;;;;;;;6.15;100.00;102706.06;4896939;29;19927;-51
2021/10/23 08:31:04;;;;;;;;;;;;;;;6.21;100.00;102710.31;4895037;29;20411;-54
2021/10/23 08:33:31;;;;;;;;;;;;;;;6.29;100.00;102705.84;4881374;29;19931;-46
2021/10/23 08:35:59;;;;;;;;;;;;;;;6.32;100.00;102697.06;4879820;29;19978;-52
2021/10/23 08:38:26;;;;;;;;;;;;;;;6.41;100.00;102712.59;4896511;29;20300;-45
2021/10/23 08:40:53;;;;;;;;;;;;;;;6.50;100.00;102720.25;4898543;29;19934;-45
2021/10/23 08:43:20;;;;;;;;;;;;;;;6.58;100.00;102717.50;4879484;29;19928;-45
2021/10/23 08:45:47;;;;;;;;;;;;;;;6.68;100.00;102718.19;4895381;29;19975;-53
2021/10/23 08:48:14;;;;;;;;;;;;;;;6.72;100.00;102733.81;4878899;29;20017;-53
2021/10/23 08:50:41;;;;;;;;;;;;;;;6.77;100.00;102729.34;4879893;29;20383;-54
2021/10/23 08:53:09;;;;;;;;;;;;;;;6.85;100.00;102723.97;4898661;29;19928;-54
2021/10/23 08:55:35;;;;;;;;;;;;;;;6.93;100.00;102721.22;4881918;29;19931;-47
2021/10/23 08:58:02;;;;;;;;;;;;;;;7.03;100.00;102733.19;4896417;29;19938;-45
2021/10/23 09:00:29;;;;;;;;;;;;;;;7.09;100.00;102737.47;4877715;29;19927;-45
2021/10/23 09:02:56;;;;;;;;;;;;;;;7.16;100.00;102732.94;4881325;29;19928;-52
2021/10/23 09:05:23;;;;;;;;;;;;;;;7.21;100.00;102734.59;4895324;29;19935;-53
2021/10/23 09:07:50;;;;;;;;;;;;;;;7.28;100.00;102730.09;4896480;29;19979;-48
2021/10/23 09:10:23;;;;;;;;;;;;;;;7.34;100.00;102729.97;4898203;29;19928;-46
2021/10/23 09:13:06;;;;;;;;;;;;;;;7.42;100.00;102727.19;4896915;29;19966;-55
2021/10/23 09:15:38;;;;;;;;;;;;;;;7.49;100.00;102722.69;4880608;29;19932;-55
2021/10/23 09:18:04;;;;;;;;;;;;;;;7.56;100.00;102729.50;4878995;29;19938;-44
2021/10/23 09:20:38;;;;;;;;;;;;;;;7.59;100.00;102722.44;4895802;29;20038;-55
2021/10/23 09:23:12;;;;;;;;;;;;;;;7.65;100.00;102720.56;4897838;29;19927;-52
2021/10/23 09:25:41;;;;;;;;;;;;;;;7.73;100.00;102726.47;4898075;29;20444;-44
2021/10/23 09:28:27;;;;;;;;;;;;;;;7.80;100.00;102717.59;4880966;29;19939;-48
2021/10/23 09:30:54;;;;;;;;;;;;;;;7.83;100.00;102719.28;4877162;29;20419;-46
2021/10/23 09:33:21;;;;;;;;;;;;;;;7.93;100.00;102724.28;4878766;29;19927;-47
2021/10/23 09:35:49;;;;;;;;;;;;;;;8.03;100.00;102734.50;4895501;29;19935;-46
2021/10/23 09:38:17;;;;;;;;;;;;;;;8.13;100.00;102738.63;4894653;29;19931;-43
2021/10/23 09:40:44;;;;;;;;;;;;;;;8.19;100.00;102738.47;4895316;29;20024;-43
2021/10/23 09:43:11;;;;;;;;;;;;;;;8.28;100.00;102743.47;4896437;29;19931;-44
2021/10/23 09:45:58;;;;;;;;;;;;;;;8.37;100.00;102742.41;4894206;29;19966;-54
2021/10/23 09:48:29;;;;;;;;;;;;;;;8.48;100.00;102755.28;4885164;29;19946;-53
2021/10/23 09:51:25;;;;;;;;;;;;;;;8.56;100.00;102757.69;4894865;29;20427;-43
2021/10/23 09:53:51;;;;;;;;;;;;;;;8.65;100.00;102753.97;4883923;29;19990;-43
2021/10/23 09:56:36;;;;;;;;;;;;;;;8.78;100.00;102748.34;4897597;29;19928;-55
2021/10/23 09:59:04;;;;;;;;;;;;;;;8.90;100.00;102741.03;4897768;29;20303;-56
2021/10/23 10:01:32;;;;;;;;;;;;;;;8.92;100.00;102744.50;4876601;29;19931;-53
2021/10/23 10:03:59;;;;;;;;;;;;;;;9.01;100.00;102738.94;4862600;29;20011;-54
2021/10/23 10:06:29;;;;;;;;;;;;;;;9.11;100.00;102743.06;4863388;29;19990;-55
2021/10/23 10:08:56;;;;;;;;;;;;;;;9.15;100.00;102743.84;4880990;29;19995;-56
2021/10/23 10:11:23;;;;;;;;;;;;;;;9.24;100.00;102738.31;4895165;29;19972;-55
2021/10/23 10:13:50;;;;;;;;;;;;;;;9.22;100.00;102731.41;4877559;29;19970;-55
2021/10/23 10:16:16;;;;;;;;;;;;;;;9.32;100.00;102724.09;4876553;29;20640;-55
2021/10/23 10:18:45;;;;;;;;;;;;;;;9.39;100.00;102731.72;4878620;29;20022;-55
2021/10/23 10:21:13;;;;;;;;;;;;;;;9.54;100.00;102737.44;4896324;29;19987;-55
2021/10/23 10:23:43;;;;;;;;;;;;;;;9.68;100.00;102734.38;4897491;29;19934;-55
2021/10/23 10:26:28;;;;;;;;;;;;;;;9.81;100.00;102731.31;4880400;29;19950;-53
2021/10/23 10:29:23;;;;;;;;;;;;;;;9.93;100.00;102730.06;4893941;29;20402;-57
2021/10/23 10:31:56;;;;;;;;;;;;;;;10.35;100.00;102730.47;4877123;29;20392;-56
2021/10/23 10:34:57;;;;;;;;;;;;;;;10.44;100.00;102730.16;4894464;29;20358;-46
2021/10/23 10:42:51;;;;;;;;;;;;;;;10.62;100.00;102739.19;4897290;29;19935;-48
2021/10/23 10:45:36;;;;;;;;;;;;;;;10.66;100.00;102738.16;4880449;29;20363;-45
2021/10/23 10:48:15;;;;;;;;;;;;;;;11.69;100.00;102735.25;4878001;29;19939;-47
2021/10/23 10:50:48;;;;;;;;;;;;;;;12.12;97.77;102738.78;4896603;29;19927;-45
2021/10/23 10:53:19;;;;;;;;;;;;;;;12.33;96.40;102750.22;4896941;29;19934;-57
2021/10/23 10:55:47;;;;;;;;;;;;;;;12.96;92.22;102744.81;4897354;29;19935;-56
2021/10/23 10:58:14;;;;;;;;;;;;;;;13.10;91.69;102746.84;4897010;29;19966;-57
2021/10/23 11:00:55;;;;;;;;;;;;;;;13.57;86.18;102753.50;4880591;29;19927;-56
2021/10/23 11:03:32;;;;;;;;;;;;;;;14.19;85.35;102746.09;4896482;29;19927;-56
2021/10/23 11:06:18;;;;;;;;;;;;;;;13.93;85.50;102747.38;4897988;29;19984;-58
2021/10/23 11:08:44;;;;;;;;;;;;;;;13.96;84.37;102747.22;4900208;29;19935;-57
2021/10/23 11:11:11;;;;;;;;;;;;;;;13.77;85.61;102746.41;4883596;29;19934;-58
2021/10/23 11:13:43;;;;;;;;;;;;;;;13.57;83.36;102745.59;4900542;29;20352;-56
2021/10/23 11:16:28;;;;;;;;;;;;;;;12.95;84.48;102737.84;4896960;29;19928;-56
2021/10/23 11:18:56;;;;;;;;;;;;;;;13.01;85.69;102737.53;4898050;29;19928;-44
2021/10/23 11:21:24;;;;;;;;;;;;;;;13.09;86.30;102745.13;4897873;29;19941;-45
2021/10/23 11:23:51;;;;;;;;;;;;;;;13.12;86.77;102739.69;4897388;29;19927;-48
2021/10/23 11:26:18;;;;;;;;;;;;;;;13.11;85.07;102745.06;4882480;29;19928;-45
2021/10/23 11:28:45;;;;;;;;;;;;;;;13.02;85.44;102739.28;4896598;29;19932;-57
2021/10/23 11:31:17;;;;;;;;;;;;;;;13.08;84.62;102737.28;4896577;29;19928;-57
2021/10/23 11:33:44;;;;;;;;;;;;;;;13.13;84.96;102730.84;4899641;29;19934;-57
2021/10/23 11:36:18;;;;;;;;;;;;;;;13.27;84.28;102740.78;4899483;29;19928;-57
2021/10/23 11:38:48;;;;;;;;;;;;;;;13.45;84.13;102735.59;4882933;29;19928;-58
2021/10/23 11:41:21;;;;;;;;;;;;;;;13.50;83.66;102733.59;4880602;29;19939;-57
2021/10/23 11:43:48;;;;;;;;;;;;;;;13.51;81.10;102740.56;4879713;29;19927;-57
2021/10/23 11:46:15;;;;;;;;;;;;;;;13.21;79.98;102741.09;4899595;29;19975;-45
2021/10/23 11:48:42;;;;;;;;;;;;;;;13.28;81.04;102734.56;4881877;29;20038;-47
2021/10/23 11:51:08;;;;;;;;;;;;;;;13.35;82.40;102736.03;4897654;29;19931;-57
2021/10/23 11:53:35;;;;;;;;;;;;;;;13.45;82.29;102738.25;4896605;29;19950;-57
2021/10/23 11:56:03;;;;;;;;;;;;;;;13.48;80.09;102738.09;4897585;29;19959;-57
2021/10/23 11:58:30;;;;;;;;;;;;;;;13.58;79.47;102733.22;4886915;29;19931;-57
2021/10/23 12:01:03;;;;;;;;;;;;;;;13.53;79.25;102733.44;4877091;29;19976;-56
2021/10/23 12:03:31;;;;;;;;;;;;;;;13.64;78.12;102731.13;4877859;29;19995;-57
2021/10/23 12:05:58;;;;;;;;;;;;;;;13.68;78.75;102727.41;4877798;29;20015;-54
2021/10/23 12:08:27;;;;;;;;;;;;;;;13.72;81.07;102733.41;4878433;29;19932;-57
2021/10/23 12:11:05;;;;;;;;;;;;;;;13.74;80.06;102736.81;4861269;29;19935;-47
2021/10/23 12:13:50;;;;;;;;;;;;;;;13.63;78.63;102728.56;4862125;29;19939;-58
2021/10/23 12:16:17;;;;;;;;;;;;;;;13.69;77.94;102731.78;4880001;29;19927;-46
2021/10/23 12:18:45;;;;;;;;;;;;;;;13.69;78.73;102723.84;4881141;29;19927;-56
2021/10/23 12:21:21;;;;;;;;;;;;;;;13.79;78.26;102728.69;4879140;29;19928;-58
2021/10/23 12:23:51;;;;;;;;;;;;;;;13.80;79.46;102730.41;4883282;29;19936;-57
2021/10/23 12:26:24;;;;;;;;;;;;;;;13.75;78.89;102730.63;4889279;29;20588;-58
2021/10/23 12:29:04;;;;;;;;;;;;;;;13.58;76.91;102727.94;4877348;29;19928;-57
2021/10/23 12:31:49;;;;;;;;;;;;;;;13.31;79.19;102731.78;4883746;29;20035;-55
2021/10/23 12:34:16;;;;;;;;;;;;;;;13.27;78.57;102722.28;4883411;29;19935;-57
2021/10/23 12:36:50;;;;;;;;;;;;;;;13.40;78.47;102717.28;4897911;29;20443;-57
2021/10/23 12:39:17;;;;;;;;;;;;;;;13.51;79.21;102720.31;4898953;29;19928;-57
2021/10/23 12:41:44;;;;;;;;;;;;;;;13.39;78.79;102722.66;4874392;29;19932;-58
2021/10/23 12:44:18;;;;;;;;;;;;;;;13.28;80.18;102724.00;4886245;29;19935;-54
2021/10/23 12:46:45;;;;;;;;;;;;;;;13.40;78.52;102725.22;4867283;29;20019;-58